createdAt,value
2023-07-18T00:01:01.342Z,7.93
2023-07-18T00:03:27.760Z,9.32
2023-07-18T00:05:54.074Z,9.43
2023-07-18T00:08:20.324Z,7.20
2023-07-18T00:10:46.630Z,7.85
2023-07-18T00:13:12.915Z,8.70
2023-07-18T00:15:39.301Z,9.90
2023-07-18T00:18:05.642Z,8.33
2023-07-18T00:20:32.130Z,8.20
2023-07-18T00:22:58.796Z,7.97
2023-07-18T00:25:25.478Z,10.20
2023-07-18T00:27:52.692Z,12.15
2023-07-18T00:30:19.606Z,8.50
2023-07-18T00:32:46.097Z,9.00
2023-07-18T00:35:13.077Z,7.25
2023-07-18T00:37:39.765Z,7.18
2023-07-18T00:40:07.031Z,8.13
2023-07-18T00:42:33.305Z,7.57
2023-07-18T00:44:59.620Z,10.13
2023-07-18T00:47:25.916Z,9.10
2023-07-18T00:49:52.507Z,6.95
2023-07-18T00:52:18.792Z,8.07
2023-07-18T00:54:45.507Z,7.50
2023-07-18T00:57:12.400Z,8.70
2023-07-18T00:59:38.763Z,8.93
2023-07-18T01:02:05.842Z,8.80
2023-07-18T01:04:32.578Z,7.78
2023-07-18T01:07:00.422Z,7.93
2023-07-18T01:12:06.727Z,7.10
2023-07-18T01:14:33.098Z,7.38
2023-07-18T01:16:59.440Z,8.02
2023-07-18T01:19:25.842Z,9.23
2023-07-18T01:21:52.196Z,8.18
2023-07-18T01:24:18.516Z,8.35
2023-07-18T01:26:45.092Z,7.88
2023-07-18T01:29:11.376Z,7.43
2023-07-18T01:31:37.815Z,7.53
2023-07-18T01:34:04.264Z,9.75
2023-07-18T01:36:30.517Z,9.52
2023-07-18T01:38:56.828Z,10.05
2023-07-18T01:41:23.118Z,8.68
2023-07-18T01:43:49.419Z,7.53
2023-07-18T01:46:15.744Z,8.93
2023-07-18T01:48:42.050Z,9.63
2023-07-18T01:51:08.585Z,8.23
2023-07-18T01:53:34.875Z,7.85
2023-07-18T01:56:01.211Z,8.60
2023-07-18T01:58:27.540Z,7.88
2023-07-18T02:00:53.814Z,10.52
2023-07-18T02:03:20.302Z,9.88
2023-07-18T02:05:46.694Z,11.25
2023-07-18T02:08:13.079Z,9.80
2023-07-18T02:10:39.656Z,8.00
2023-07-18T02:13:06.046Z,8.48
2023-07-18T02:15:32.348Z,9.93
2023-07-18T02:17:58.712Z,9.70
2023-07-18T02:20:25.088Z,7.47
2023-07-18T02:22:51.545Z,8.98
2023-07-18T02:25:17.915Z,8.85
2023-07-18T02:27:44.603Z,9.18
2023-07-18T02:30:11.994Z,9.00
2023-07-18T02:32:41.834Z,7.97
2023-07-18T02:35:09.060Z,8.40
2023-07-18T02:37:35.850Z,9.82
2023-07-18T02:40:02.844Z,7.88
2023-07-18T02:42:29.162Z,10.20
2023-07-18T02:44:55.474Z,8.70
2023-07-18T02:47:21.903Z,10.15
2023-07-18T02:49:48.203Z,13.30
2023-07-18T02:52:14.507Z,11.95
2023-07-18T02:54:40.826Z,9.52
2023-07-18T02:57:07.301Z,9.93
2023-07-18T02:59:33.714Z,8.77
2023-07-18T03:02:00.071Z,9.68
2023-07-18T03:04:26.412Z,8.60
2023-07-18T03:06:52.722Z,10.18
2023-07-18T03:09:19.052Z,10.97
2023-07-18T03:11:45.370Z,9.85
2023-07-18T03:14:12.078Z,11.48
2023-07-18T03:16:38.837Z,9.10
2023-07-18T03:19:05.893Z,10.48
2023-07-18T03:21:32.397Z,11.50
2023-07-18T03:23:59.112Z,9.80
2023-07-18T03:26:25.484Z,11.52
2023-07-18T03:28:51.892Z,9.63
2023-07-18T03:31:18.438Z,8.82
2023-07-18T03:33:44.965Z,7.90
2023-07-18T03:36:11.270Z,9.40
2023-07-18T03:38:37.548Z,8.98
2023-07-18T03:41:03.832Z,10.05
2023-07-18T03:43:30.133Z,8.65
2023-07-18T03:45:56.444Z,8.90
2023-07-18T03:48:22.752Z,9.98
2023-07-18T03:50:49.133Z,10.35
2023-07-18T03:53:15.872Z,11.90
2023-07-18T03:55:42.217Z,10.10
2023-07-18T03:58:08.524Z,10.13
2023-07-18T04:00:34.861Z,9.70
2023-07-18T04:03:01.262Z,10.20
2023-07-18T04:05:27.624Z,10.15
2023-07-18T04:07:54.020Z,9.32
2023-07-18T04:10:20.385Z,8.33
2023-07-18T04:12:46.779Z,12.20
2023-07-18T04:15:13.416Z,9.05
2023-07-18T04:17:39.810Z,8.32
2023-07-18T04:20:06.516Z,15.05
2023-07-18T04:22:32.835Z,8.47
2023-07-18T04:24:59.499Z,9.90
2023-07-18T04:27:25.976Z,8.93
2023-07-18T04:29:52.250Z,10.32
2023-07-18T04:32:18.933Z,10.60
2023-07-18T04:34:45.343Z,9.40
2023-07-18T04:37:11.711Z,8.50
2023-07-18T04:39:38.028Z,8.73
2023-07-18T04:42:04.560Z,8.88
2023-07-18T04:44:30.842Z,11.70
2023-07-18T04:46:57.349Z,8.83
2023-07-18T04:49:23.727Z,10.10
2023-07-18T04:51:50.190Z,11.10
2023-07-18T04:54:16.488Z,8.60
2023-07-18T04:56:42.818Z,10.60
2023-07-18T04:59:09.095Z,10.90
2023-07-18T05:01:35.483Z,10.50
2023-07-18T05:04:01.858Z,8.80
2023-07-18T05:06:28.269Z,9.70
2023-07-18T05:08:54.606Z,8.90
2023-07-18T05:11:21.218Z,10.07
2023-07-18T05:13:47.764Z,9.35
2023-07-18T05:16:14.182Z,12.75
2023-07-18T05:18:40.505Z,9.93
2023-07-18T05:21:06.897Z,10.93
2023-07-18T05:23:33.218Z,12.97
2023-07-18T05:25:59.504Z,13.40
2023-07-18T05:28:25.830Z,8.80
2023-07-18T05:30:52.160Z,11.15
2023-07-18T05:33:18.454Z,10.45
2023-07-18T05:35:44.704Z,11.37
2023-07-18T05:38:11.205Z,10.98
2023-07-18T05:40:37.570Z,10.05
2023-07-18T05:43:03.911Z,12.63
2023-07-18T05:45:30.171Z,10.52
2023-07-18T05:47:56.572Z,10.17
2023-07-18T05:50:22.989Z,9.90
2023-07-18T05:52:49.324Z,12.73
2023-07-18T05:55:15.710Z,15.77
2023-07-18T05:57:42.019Z,13.00
2023-07-18T06:00:08.473Z,13.50
2023-07-18T06:02:34.837Z,10.07
2023-07-18T06:05:01.186Z,13.10
2023-07-18T06:07:27.557Z,12.55
2023-07-18T06:09:53.880Z,15.98
2023-07-18T06:12:20.244Z,16.50
2023-07-18T06:14:46.558Z,14.27
2023-07-18T06:17:13.027Z,14.13
2023-07-18T06:19:39.391Z,14.82
2023-07-18T06:22:05.727Z,18.52
2023-07-18T06:24:32.072Z,19.20
2023-07-18T06:26:58.402Z,17.48
2023-07-18T06:29:24.848Z,18.77
2023-07-18T06:31:51.352Z,18.05
2023-07-18T06:34:19.016Z,19.42
2023-07-18T06:36:45.748Z,15.60
2023-07-18T06:39:12.136Z,16.05
2023-07-18T06:41:38.619Z,15.73
2023-07-18T06:44:04.953Z,22.35
2023-07-18T06:46:31.362Z,17.48
2023-07-18T06:48:57.704Z,18.07
2023-07-18T06:51:24.351Z,17.85
2023-07-18T06:53:50.636Z,20.35
2023-07-18T06:56:17.009Z,18.35
2023-07-18T06:58:43.298Z,15.82
2023-07-18T07:01:09.739Z,16.23
2023-07-18T07:03:36.203Z,17.67
2023-07-18T07:06:02.622Z,13.90
2023-07-18T07:08:28.952Z,11.77
2023-07-18T07:11:04.102Z,12.15
2023-07-18T07:13:30.535Z,14.80
2023-07-18T07:15:56.922Z,15.00
2023-07-18T07:18:23.264Z,14.00
2023-07-18T07:20:49.550Z,14.90
2023-07-18T07:23:15.955Z,14.43
2023-07-18T07:25:43.536Z,11.07
2023-07-18T07:28:11.275Z,12.30
2023-07-18T07:30:37.656Z,12.88
2023-07-18T07:33:04.001Z,13.55
2023-07-18T07:35:30.314Z,12.63
2023-07-18T07:37:56.579Z,11.30
2023-07-18T07:40:22.946Z,10.75
2023-07-18T07:42:49.217Z,12.98
2023-07-18T07:45:15.939Z,13.00
2023-07-18T07:47:42.370Z,12.95
2023-07-18T07:50:09.080Z,11.67
2023-07-18T07:52:35.915Z,9.05
2023-07-18T07:55:02.750Z,11.38
2023-07-18T07:57:30.835Z,13.40
2023-07-18T07:59:57.240Z,12.40
2023-07-18T08:02:23.694Z,12.70
2023-07-18T08:04:50.313Z,15.55
2023-07-18T08:07:17.007Z,12.90
2023-07-18T08:09:43.435Z,12.40
2023-07-18T08:12:11.368Z,12.60
2023-07-18T08:14:37.943Z,9.43
2023-07-18T08:17:04.761Z,11.98
2023-07-18T08:19:31.194Z,10.70
2023-07-18T08:21:57.589Z,8.40
2023-07-18T08:24:23.899Z,8.15
2023-07-18T08:26:50.150Z,8.87
2023-07-18T08:29:16.572Z,7.45
2023-07-18T08:31:42.939Z,8.05
2023-07-18T08:34:09.268Z,8.68
2023-07-18T08:36:35.613Z,10.23
2023-07-18T08:39:01.884Z,9.90
2023-07-18T08:41:28.995Z,9.40
2023-07-18T08:43:56.082Z,7.43
2023-07-18T08:46:22.499Z,9.38
2023-07-18T08:48:48.859Z,9.70
2023-07-18T08:51:15.246Z,10.30
2023-07-18T08:53:41.865Z,7.55
2023-07-18T08:56:08.856Z,8.65
2023-07-18T08:58:35.599Z,7.25
2023-07-18T09:01:01.871Z,7.93
2023-07-18T09:03:28.405Z,6.47
2023-07-18T09:05:54.770Z,6.85
2023-07-18T09:08:22.258Z,6.32
2023-07-18T09:10:49.766Z,5.72
2023-07-18T09:13:16.074Z,6.00
2023-07-18T09:15:42.921Z,7.43
2023-07-18T09:18:09.405Z,5.50
2023-07-18T09:20:36.138Z,5.25
2023-07-18T09:23:03.502Z,4.97
2023-07-18T09:25:30.372Z,4.00
2023-07-18T09:27:57.430Z,5.37
2023-07-18T09:30:27.709Z,5.50
2023-07-18T09:32:54.416Z,5.93
2023-07-18T09:35:20.875Z,6.80
2023-07-18T09:37:48.452Z,6.60
2023-07-18T09:40:15.410Z,5.57
2023-07-18T09:42:47.152Z,6.00
2023-07-18T09:45:14.827Z,6.45
2023-07-18T09:47:41.835Z,6.30
2023-07-18T09:50:12.196Z,6.47
2023-07-18T09:52:43.629Z,7.40
2023-07-18T09:55:10.008Z,5.80
2023-07-18T09:57:37.864Z,5.43
2023-07-18T10:00:04.419Z,5.25
2023-07-18T10:02:30.770Z,7.07
2023-07-18T10:04:57.263Z,5.60
2023-07-18T10:07:23.852Z,5.72
2023-07-18T10:09:50.208Z,4.72
2023-07-18T10:12:16.546Z,5.03
2023-07-18T10:14:42.857Z,5.00
2023-07-18T10:17:09.405Z,4.40
2023-07-18T10:19:46.616Z,5.53
2023-07-18T10:22:13.321Z,4.55
2023-07-18T10:24:49.446Z,5.65
2023-07-18T10:27:15.816Z,4.20
2023-07-18T10:29:42.492Z,5.50
2023-07-18T10:32:12.287Z,4.60
2023-07-18T10:34:38.604Z,4.15
2023-07-18T10:37:08.151Z,4.57
2023-07-18T10:39:41.416Z,4.93
2023-07-18T10:42:08.705Z,6.03
2023-07-18T10:44:37.660Z,4.82
2023-07-18T10:47:16.444Z,5.95
2023-07-18T10:49:42.987Z,5.43
2023-07-18T10:52:09.435Z,6.88
2023-07-18T10:54:36.268Z,6.23
2023-07-18T10:57:02.774Z,7.30
2023-07-18T10:59:29.125Z,4.93
2023-07-18T11:01:55.714Z,4.70
2023-07-18T11:04:25.817Z,5.30
2023-07-18T11:06:54.796Z,5.87
2023-07-18T11:09:22.530Z,7.03
2023-07-18T11:11:49.154Z,4.78
2023-07-18T11:14:15.576Z,4.93
2023-07-18T11:16:42.724Z,6.00
2023-07-18T11:19:09.454Z,6.60
2023-07-18T11:21:36.551Z,5.82
2023-07-18T11:24:02.906Z,7.22
2023-07-18T11:26:31.399Z,6.57
2023-07-18T11:29:00.957Z,5.55
2023-07-18T11:34:01.173Z,6.93
2023-07-18T11:36:28.792Z,6.88
2023-07-18T11:38:55.155Z,5.60
2023-07-18T11:41:34.923Z,6.85
2023-07-18T11:44:02.011Z,6.73
2023-07-18T11:46:58.899Z,4.70
2023-07-18T11:49:34.592Z,4.30
2023-07-18T11:52:01.555Z,4.65
2023-07-18T11:54:27.964Z,4.75
2023-07-18T11:56:54.220Z,5.90
2023-07-18T11:59:20.665Z,5.82
2023-07-18T12:01:47.010Z,5.72
2023-07-18T12:04:13.766Z,7.15
2023-07-18T12:06:40.346Z,6.22
2023-07-18T12:09:06.670Z,4.67
2023-07-18T12:11:33.015Z,6.82
2023-07-18T12:13:59.265Z,6.05
2023-07-18T12:16:25.771Z,5.60
2023-07-18T12:18:52.114Z,5.32
2023-07-18T12:21:18.645Z,5.50
2023-07-18T12:23:45.129Z,5.80
2023-07-18T12:26:11.749Z,5.65
2023-07-18T12:28:38.011Z,5.57
2023-07-18T12:31:04.518Z,5.38
2023-07-18T12:33:30.960Z,5.30
2023-07-18T12:35:57.366Z,5.75
2023-07-18T12:38:26.234Z,6.70
2023-07-18T12:40:54.070Z,5.15
2023-07-18T12:43:20.453Z,4.28
2023-07-18T12:45:46.823Z,3.90
2023-07-18T12:48:13.094Z,5.50
2023-07-18T12:50:39.497Z,5.75
2023-07-18T12:53:05.818Z,5.13
2023-07-18T12:55:32.098Z,4.43
2023-07-18T12:57:58.576Z,4.23
2023-07-18T13:00:24.992Z,5.13
2023-07-18T13:02:51.380Z,6.72
2023-07-18T13:05:17.937Z,4.63
2023-07-18T13:07:44.446Z,4.43
2023-07-18T13:10:12.103Z,5.20
2023-07-18T13:12:40.934Z,9.05
2023-07-18T13:15:07.422Z,5.85
2023-07-18T13:17:33.892Z,5.65
2023-07-18T13:20:00.246Z,4.95
2023-07-18T13:22:26.718Z,4.83
2023-07-18T13:24:53.066Z,4.47
2023-07-18T13:27:19.344Z,4.85
2023-07-18T13:29:45.667Z,5.18
2023-07-18T13:32:12.096Z,4.78
2023-07-18T13:34:38.602Z,5.13
2023-07-18T13:37:05.173Z,6.72
2023-07-18T13:39:31.870Z,5.82
2023-07-18T13:41:58.299Z,8.57
2023-07-18T13:44:24.636Z,5.68
2023-07-18T13:46:52.203Z,5.50
2023-07-18T13:49:18.617Z,5.38
2023-07-18T13:51:44.983Z,6.05
2023-07-18T13:54:11.367Z,5.60
2023-07-18T13:56:37.720Z,6.55
2023-07-18T13:59:04.055Z,6.67
2023-07-18T14:01:30.454Z,6.18
2023-07-18T14:03:56.965Z,6.10
2023-07-18T14:06:23.570Z,5.47
2023-07-18T14:08:50.560Z,5.65
2023-07-18T14:11:16.838Z,5.77
2023-07-18T14:13:43.451Z,5.97
2023-07-18T14:16:09.818Z,4.75
2023-07-18T14:18:36.171Z,7.35
2023-07-18T14:21:02.795Z,6.35
2023-07-18T14:23:29.339Z,6.03
2023-07-18T14:25:55.726Z,6.07
2023-07-18T14:28:22.009Z,7.22
2023-07-18T14:30:48.315Z,7.72
2023-07-18T14:33:14.641Z,6.72
2023-07-18T14:35:44.620Z,7.80
2023-07-18T14:38:11.172Z,6.28
2023-07-18T14:40:37.599Z,6.70
2023-07-18T14:43:10.527Z,5.40
2023-07-18T14:45:37.568Z,6.32
2023-07-18T14:48:04.118Z,6.43
2023-07-18T14:50:31.196Z,7.13
2023-07-18T14:52:57.477Z,5.47
2023-07-18T14:55:23.836Z,7.40
2023-07-18T14:57:50.166Z,5.50
2023-07-18T15:00:16.720Z,5.93
2023-07-18T15:02:43.092Z,7.20
2023-07-18T15:05:09.565Z,6.60
2023-07-18T15:07:35.920Z,5.82
2023-07-18T15:10:02.350Z,6.60
2023-07-18T15:12:28.773Z,6.20
2023-07-18T15:14:55.100Z,5.07
2023-07-18T15:17:21.463Z,5.80
2023-07-18T15:19:47.740Z,5.13
2023-07-18T15:22:14.021Z,4.80
2023-07-18T15:24:40.299Z,5.70
2023-07-18T15:27:06.656Z,4.95
2023-07-18T15:29:32.983Z,6.10
2023-07-18T15:31:59.283Z,5.10
2023-07-18T15:34:25.602Z,5.07
2023-07-18T15:36:51.929Z,5.80
2023-07-18T15:39:18.273Z,5.05
2023-07-18T15:41:44.729Z,5.32
2023-07-18T15:44:11.084Z,5.30
2023-07-18T15:46:37.816Z,5.88
2023-07-18T15:49:04.145Z,4.90
2023-07-18T15:51:30.477Z,5.60
2023-07-18T15:53:56.868Z,5.38
2023-07-18T15:56:23.587Z,5.40
2023-07-18T15:58:49.929Z,5.72
2023-07-18T16:01:16.241Z,5.13
2023-07-18T16:03:42.589Z,5.22
2023-07-18T16:06:08.876Z,5.45
2023-07-18T16:08:36.536Z,5.85
2023-07-18T16:11:03.123Z,6.28
2023-07-18T16:13:29.455Z,5.27
2023-07-18T16:15:55.772Z,7.95
2023-07-18T16:18:22.118Z,7.45
2023-07-18T16:20:48.450Z,7.45
2023-07-18T16:23:15.023Z,5.30
2023-07-18T16:25:41.438Z,6.67
2023-07-18T16:28:07.734Z,6.28
2023-07-18T16:30:34.032Z,5.38
2023-07-18T16:33:00.495Z,4.95
2023-07-18T16:35:26.884Z,4.68
2023-07-18T16:37:53.139Z,5.30
2023-07-18T16:40:19.452Z,7.03
2023-07-18T16:42:45.991Z,4.78
2023-07-18T16:45:12.283Z,6.65
2023-07-18T16:47:38.578Z,6.65
2023-07-18T16:50:05.350Z,9.80
2023-07-18T16:52:31.664Z,6.20
2023-07-18T16:54:58.109Z,7.60
2023-07-18T16:57:24.506Z,7.10
2023-07-18T16:59:50.862Z,7.88
2023-07-18T17:02:17.160Z,6.90
2023-07-18T17:04:43.560Z,6.18
2023-07-18T17:07:09.925Z,5.68
2023-07-18T17:09:36.174Z,8.38
2023-07-18T17:12:02.534Z,7.93
2023-07-18T17:14:28.800Z,5.10
2023-07-18T17:16:55.115Z,7.70
2023-07-18T17:19:21.474Z,5.70
2023-07-18T17:21:47.799Z,5.55
2023-07-18T17:24:14.228Z,5.43
2023-07-18T17:26:40.640Z,7.57
2023-07-18T17:29:06.948Z,7.93
2023-07-18T17:31:33.319Z,7.90
2023-07-18T17:33:59.611Z,7.38
2023-07-18T17:36:25.927Z,6.03
2023-07-18T17:38:52.251Z,5.30
2023-07-18T17:41:18.758Z,6.03
2023-07-18T17:43:45.302Z,7.32
2023-07-18T17:46:11.572Z,7.70
2023-07-18T17:48:38.019Z,8.65
2023-07-18T17:51:04.316Z,8.97
2023-07-18T17:53:30.726Z,9.63
2023-07-18T17:55:57.393Z,8.65
2023-07-18T17:58:23.673Z,7.75
2023-07-18T18:00:50.008Z,16.35
2023-07-18T18:03:16.321Z,11.67
2023-07-18T18:05:42.743Z,15.25
2023-07-18T18:08:09.033Z,11.10
2023-07-18T18:10:35.573Z,11.38
2023-07-18T18:13:01.952Z,11.00
2023-07-18T18:15:28.305Z,12.93
2023-07-18T18:17:54.663Z,9.57
2023-07-18T18:20:21.131Z,9.48
2023-07-18T18:22:47.720Z,7.95
2023-07-18T18:25:14.373Z,7.65
2023-07-18T18:27:40.818Z,8.67
2023-07-18T18:30:07.365Z,5.78
2023-07-18T18:32:33.696Z,5.88
2023-07-18T18:35:07.212Z,7.72
2023-07-18T18:37:35.833Z,7.00
2023-07-18T18:40:02.218Z,6.57
2023-07-18T18:42:28.527Z,8.48
2023-07-18T18:44:54.868Z,8.32
2023-07-18T18:47:21.173Z,7.80
2023-07-18T18:49:47.482Z,8.70
2023-07-18T18:52:13.748Z,8.87
2023-07-18T18:54:40.057Z,7.45
2023-07-18T18:57:06.447Z,8.77
2023-07-18T18:59:32.836Z,9.20
2023-07-18T19:01:59.223Z,7.45
2023-07-18T19:04:25.547Z,8.97
2023-07-18T19:06:51.878Z,7.97
2023-07-18T19:09:18.193Z,7.35
2023-07-18T19:11:44.493Z,10.30
2023-07-18T19:14:10.769Z,8.57
2023-07-18T19:16:40.179Z,10.17
2023-07-18T19:19:07.353Z,6.97
2023-07-18T19:21:33.700Z,10.93
2023-07-18T19:24:00.033Z,7.55
2023-07-18T19:26:26.727Z,9.90
2023-07-18T19:28:53.052Z,7.90
2023-07-18T19:31:19.679Z,8.02
2023-07-18T19:33:46.225Z,7.50
2023-07-18T19:36:12.479Z,7.78
2023-07-18T19:38:40.463Z,8.93
2023-07-18T19:41:06.894Z,8.77
2023-07-18T19:43:33.234Z,7.13
2023-07-18T19:45:59.634Z,8.75
2023-07-18T19:48:25.994Z,8.52
2023-07-18T19:50:52.309Z,10.00
2023-07-18T19:53:18.592Z,7.83
2023-07-18T19:55:44.914Z,7.63
2023-07-18T19:58:11.159Z,7.10
2023-07-18T20:00:37.434Z,11.13
2023-07-18T20:03:03.871Z,8.88
2023-07-18T20:05:30.315Z,8.20
2023-07-18T20:07:56.696Z,8.60
2023-07-18T20:10:22.963Z,8.73
2023-07-18T20:12:49.303Z,9.05
2023-07-18T20:15:15.725Z,8.43
2023-07-18T20:17:42.040Z,10.63
2023-07-18T20:20:08.829Z,8.10
2023-07-18T20:22:36.330Z,8.35
2023-07-18T20:25:02.748Z,8.43
2023-07-18T20:27:29.048Z,8.93
2023-07-18T20:29:55.363Z,8.47
2023-07-18T20:32:21.714Z,7.25
2023-07-18T20:34:48.140Z,7.85
2023-07-18T20:37:14.482Z,7.43
2023-07-18T20:39:40.918Z,8.20
2023-07-18T20:42:07.295Z,8.93
2023-07-18T20:44:33.679Z,10.15
2023-07-18T20:46:59.989Z,8.43
2023-07-18T20:49:26.346Z,8.88
2023-07-18T20:51:52.658Z,8.65
2023-07-18T20:54:18.903Z,9.00
2023-07-18T20:56:45.237Z,8.40
2023-07-18T20:59:11.506Z,9.15
2023-07-18T21:01:37.819Z,10.23
2023-07-18T21:04:04.342Z,10.45
2023-07-18T21:06:30.734Z,7.70
2023-07-18T21:08:57.546Z,9.10
2023-07-18T21:11:24.006Z,8.27
2023-07-18T21:13:50.365Z,9.65
2023-07-18T21:16:16.729Z,8.38
2023-07-18T21:18:43.022Z,10.23
2023-07-18T21:21:09.389Z,15.95
2023-07-18T21:23:35.704Z,7.18
2023-07-18T21:26:02.106Z,7.47
2023-07-18T21:28:28.522Z,9.45
2023-07-18T21:30:54.895Z,11.53
2023-07-18T21:33:21.229Z,9.02
2023-07-18T21:35:47.599Z,8.32
2023-07-18T21:38:13.927Z,9.98
2023-07-18T21:40:40.194Z,7.55
2023-07-18T21:43:06.447Z,9.27
2023-07-18T21:45:32.811Z,9.23
2023-07-18T21:47:59.213Z,8.50
2023-07-18T21:50:25.551Z,7.85
2023-07-18T21:52:51.870Z,9.77
2023-07-18T21:55:18.129Z,9.57
2023-07-18T21:57:44.549Z,9.40
2023-07-18T22:00:10.977Z,10.20
2023-07-18T22:02:37.600Z,8.55
2023-07-18T22:05:04.201Z,8.02
2023-07-18T22:07:31.199Z,7.80
2023-07-18T22:09:57.567Z,10.68
2023-07-18T22:12:24.023Z,10.02
2023-07-18T22:14:50.274Z,10.38
2023-07-18T22:17:16.645Z,9.75
2023-07-18T22:19:42.991Z,9.17
2023-07-18T22:22:09.316Z,9.52
2023-07-18T22:24:35.619Z,11.40
2023-07-18T22:27:01.954Z,11.10
2023-07-18T22:29:28.207Z,11.60
2023-07-18T22:31:54.519Z,9.60
2023-07-18T22:34:20.880Z,11.57
2023-07-18T22:36:47.201Z,11.32
2023-07-18T22:39:29.432Z,10.75
2023-07-18T22:42:12.758Z,13.13
2023-07-18T22:44:39.085Z,12.20
2023-07-18T22:47:05.558Z,11.50
2023-07-18T22:49:31.852Z,12.80
2023-07-18T22:51:58.142Z,12.77
2023-07-18T22:54:24.420Z,11.82
2023-07-18T22:56:51.093Z,11.07
2023-07-18T22:59:17.459Z,11.63
2023-07-18T23:01:43.770Z,13.82
2023-07-18T23:04:10.048Z,13.40
2023-07-18T23:06:36.401Z,11.15
2023-07-18T23:09:02.735Z,11.70
2023-07-18T23:11:29.082Z,14.70
2023-07-18T23:13:55.454Z,10.80
2023-07-18T23:16:21.851Z,13.55
2023-07-18T23:18:48.200Z,11.98
2023-07-18T23:21:14.541Z,13.00
2023-07-18T23:23:40.915Z,13.30
2023-07-18T23:26:07.212Z,13.15
2023-07-18T23:28:33.535Z,11.27
2023-07-18T23:30:59.968Z,11.88
2023-07-18T23:33:26.285Z,15.33
2023-07-18T23:35:52.636Z,13.05
2023-07-18T23:38:18.946Z,12.57
2023-07-18T23:40:45.433Z,11.80
2023-07-18T23:43:11.734Z,12.50
2023-07-18T23:45:38.103Z,13.27
2023-07-18T23:48:04.704Z,12.43
2023-07-18T23:50:31.201Z,11.60
2023-07-18T23:52:57.514Z,14.10
2023-07-18T23:55:23.978Z,11.10
2023-07-18T23:57:50.364Z,14.67
